createdAt,value
2022-12-24T00:00:42.989Z,4.9
2022-12-24T00:01:51.273Z,4.9
2022-12-24T00:02:59.776Z,4.9
2022-12-24T00:04:08.203Z,5.9
2022-12-24T00:05:16.542Z,5.9
2022-12-24T00:06:24.939Z,5.9
2022-12-24T00:07:33.434Z,5
2022-12-24T00:08:41.778Z,5
2022-12-24T00:09:50.120Z,5
2022-12-24T00:10:58.665Z,4.1
2022-12-24T00:12:07.013Z,4.1
2022-12-24T00:13:15.366Z,4.1
2022-12-24T00:14:23.927Z,5
2022-12-24T00:15:32.285Z,5
2022-12-24T00:16:40.698Z,5
2022-12-24T00:17:49.170Z,4.2
2022-12-24T00:18:57.534Z,4.2
2022-12-24T00:20:05.871Z,4.2
2022-12-24T00:21:14.419Z,5.6
2022-12-24T00:22:22.794Z,5.6
2022-12-24T00:23:31.099Z,5.6
2022-12-24T00:24:39.649Z,5.5
2022-12-24T00:25:48.109Z,5.5
2022-12-24T00:26:56.428Z,5.5
2022-12-24T00:28:05.008Z,6.5
2022-12-24T00:29:13.341Z,6.5
2022-12-24T00:30:21.690Z,6.5
2022-12-24T00:31:30.332Z,4.1
2022-12-24T00:32:38.600Z,4.1
2022-12-24T00:33:46.982Z,4.1
2022-12-24T00:34:55.489Z,5.8
2022-12-24T00:36:03.829Z,5.8
2022-12-24T00:37:12.167Z,5.8
2022-12-24T00:38:20.770Z,7.9
2022-12-24T00:39:29.072Z,7.9
2022-12-24T00:40:37.416Z,7.9
2022-12-24T00:41:45.973Z,7.5
2022-12-24T00:42:54.316Z,7.5
2022-12-24T00:44:02.661Z,7.5
2022-12-24T00:45:11.229Z,5.9
2022-12-24T00:46:19.552Z,5.9
2022-12-24T00:47:27.900Z,5.9
2022-12-24T00:48:36.455Z,4.8
2022-12-24T00:49:44.806Z,4.8
2022-12-24T00:50:53.217Z,4.8
2022-12-24T00:52:01.712Z,5.4
2022-12-24T00:53:10.053Z,5.4
2022-12-24T00:54:18.426Z,5.4
2022-12-24T00:55:26.998Z,3.8
2022-12-24T00:56:35.340Z,3.8
2022-12-24T00:57:43.645Z,3.8
2022-12-24T00:58:52.210Z,2.8
2022-12-24T01:00:00.549Z,2.8
2022-12-24T01:01:09.007Z,2.8
2022-12-24T01:02:17.567Z,8.2
2022-12-24T01:03:25.798Z,8.2
2022-12-24T01:04:34.131Z,8.2
2022-12-24T01:05:42.683Z,6.1
2022-12-24T01:06:51.031Z,6.1
2022-12-24T01:07:59.378Z,6.1
2022-12-24T01:09:07.931Z,8.2
2022-12-24T01:10:16.290Z,8.2
2022-12-24T01:11:24.620Z,8.2
2022-12-24T01:12:33.198Z,8.3
2022-12-24T01:13:41.537Z,8.3
2022-12-24T01:14:49.877Z,8.3
2022-12-24T01:15:58.450Z,5.6
2022-12-24T01:17:06.786Z,5.6
2022-12-24T01:18:15.122Z,5.6
2022-12-24T01:19:23.680Z,6.8
2022-12-24T01:20:32.027Z,6.8
2022-12-24T01:21:40.386Z,6.8
2022-12-24T01:22:48.974Z,7.5
2022-12-24T01:23:57.296Z,7.5
2022-12-24T01:25:05.616Z,7.5
2022-12-24T01:26:14.209Z,7.4
2022-12-24T01:27:22.521Z,7.4
2022-12-24T01:28:30.869Z,7.4
2022-12-24T01:29:39.426Z,9
2022-12-24T01:30:47.797Z,9
2022-12-24T01:31:56.119Z,9
2022-12-24T01:33:04.687Z,9
2022-12-24T01:34:13.030Z,9
2022-12-24T01:35:21.380Z,9
2022-12-24T01:36:29.939Z,9
2022-12-24T01:37:38.302Z,9
2022-12-24T01:38:46.619Z,9
2022-12-24T01:39:55.168Z,9.9
2022-12-24T01:41:03.514Z,9.9
2022-12-24T01:42:11.887Z,9.9
2022-12-24T01:43:20.415Z,9.5
2022-12-24T01:44:35.479Z,9.5
2022-12-24T01:45:37.097Z,9.5
2022-12-24T01:46:45.722Z,4.8
2022-12-24T01:47:53.989Z,4.8
2022-12-24T01:49:02.329Z,4.8
2022-12-24T01:50:10.887Z,9.3
2022-12-24T01:51:19.235Z,9.3
2022-12-24T01:52:27.584Z,9.3
2022-12-24T01:53:36.131Z,8.3
2022-12-24T01:54:44.512Z,8.3
2022-12-24T01:55:52.827Z,8.3
2022-12-24T01:57:01.372Z,11.4
2022-12-24T01:58:09.749Z,11.4
2022-12-24T01:59:18.080Z,11.4
2022-12-24T02:00:26.664Z,8.3
2022-12-24T02:01:35.099Z,8.3
2022-12-24T02:02:43.481Z,8.3
2022-12-24T02:03:51.973Z,7.1
2022-12-24T02:05:00.231Z,7.1
2022-12-24T02:06:08.585Z,7.1
2022-12-24T02:07:17.142Z,7.8
2022-12-24T02:08:25.494Z,7.8
2022-12-24T02:09:33.856Z,7.8
2022-12-24T02:10:42.379Z,8.3
2022-12-24T02:11:50.725Z,8.3
2022-12-24T02:12:59.071Z,8.3
2022-12-24T02:14:07.645Z,5.8
2022-12-24T02:15:15.965Z,5.8
2022-12-24T02:16:24.355Z,5.8
2022-12-24T02:17:32.870Z,8.4
2022-12-24T02:18:41.211Z,8.4
2022-12-24T02:19:49.548Z,8.4
2022-12-24T02:20:58.094Z,8.5
2022-12-24T02:22:06.444Z,8.5
2022-12-24T02:23:14.792Z,8.5
2022-12-24T02:24:23.369Z,7.6
2022-12-24T02:25:31.672Z,7.6
2022-12-24T02:26:40.021Z,7.6
2022-12-24T02:27:48.581Z,10.9
2022-12-24T02:28:56.927Z,10.9
2022-12-24T02:30:05.293Z,10.9
2022-12-24T02:31:13.847Z,7.8
2022-12-24T02:32:22.177Z,7.8
2022-12-24T02:33:30.504Z,7.8
2022-12-24T02:34:39.070Z,8.1
2022-12-24T02:35:47.403Z,8.1
2022-12-24T02:36:55.748Z,8.1
2022-12-24T02:38:04.297Z,8.6
2022-12-24T02:39:12.643Z,8.6
2022-12-24T02:40:21.002Z,8.6
2022-12-24T02:41:29.569Z,8.9
2022-12-24T02:42:37.957Z,8.9
2022-12-24T02:43:46.299Z,8.9
2022-12-24T02:44:54.856Z,7
2022-12-24T02:46:03.206Z,7
2022-12-24T02:47:11.660Z,7
2022-12-24T02:48:20.092Z,8.3
2022-12-24T02:49:28.428Z,8.3
2022-12-24T02:50:36.771Z,8.3
2022-12-24T02:51:45.328Z,9.3
2022-12-24T02:52:53.684Z,9.3
2022-12-24T02:54:02.040Z,9.3
2022-12-24T02:55:10.583Z,8.3
2022-12-24T02:56:18.934Z,8.3
2022-12-24T02:57:27.296Z,8.3
2022-12-24T02:58:35.835Z,9.3
2022-12-24T02:59:44.172Z,9.3
2022-12-24T03:00:52.577Z,9.3
2022-12-24T03:02:01.168Z,7.1
2022-12-24T03:03:09.527Z,7.1
2022-12-24T03:04:17.794Z,7.1
2022-12-24T03:05:26.336Z,9.1
2022-12-24T03:06:34.676Z,9.1
2022-12-24T03:07:43.033Z,9.1
2022-12-24T03:08:51.585Z,8.4
2022-12-24T03:09:59.936Z,8.4
2022-12-24T03:11:08.257Z,8.4
2022-12-24T03:12:16.862Z,7.6
2022-12-24T03:13:25.181Z,7.6
2022-12-24T03:14:33.534Z,7.6
2022-12-24T03:15:42.118Z,8.8
2022-12-24T03:16:50.458Z,8.8
2022-12-24T03:17:58.817Z,8.8
2022-12-24T03:19:07.332Z,8.7
2022-12-24T03:20:15.926Z,8.7
2022-12-24T03:21:24.284Z,8.7
2022-12-24T03:22:32.833Z,8.6
2022-12-24T03:23:41.172Z,8.6
2022-12-24T03:24:49.517Z,8.6
2022-12-24T03:25:58.066Z,10.4
2022-12-24T03:27:06.409Z,10.4
2022-12-24T03:28:14.772Z,10.4
2022-12-24T03:29:23.335Z,9.7
2022-12-24T03:30:31.668Z,9.7
2022-12-24T03:31:40.079Z,9.7
2022-12-24T03:32:48.599Z,9.2
2022-12-24T03:33:56.966Z,9.2
2022-12-24T03:35:05.307Z,9.2
2022-12-24T03:36:13.821Z,7.9
2022-12-24T03:37:22.170Z,7.9
2022-12-24T03:38:30.512Z,7.9
2022-12-24T03:39:39.073Z,7.4
2022-12-24T03:40:47.411Z,7.4
2022-12-24T03:41:55.748Z,7.4
2022-12-24T03:43:04.340Z,7.5
2022-12-24T03:44:12.667Z,7.5
2022-12-24T03:45:21.016Z,7.5
2022-12-24T03:46:29.579Z,9.4
2022-12-24T03:47:37.931Z,9.4
2022-12-24T03:48:46.286Z,9.4
2022-12-24T03:49:54.860Z,11
2022-12-24T03:51:03.205Z,11
2022-12-24T03:52:11.556Z,11
2022-12-24T03:53:20.102Z,7.7
2022-12-24T03:54:28.448Z,7.7
2022-12-24T03:55:36.779Z,7.7
2022-12-24T03:56:45.343Z,10
2022-12-24T03:57:53.699Z,10
2022-12-24T03:59:02.060Z,10
2022-12-24T04:00:10.612Z,7.7
2022-12-24T04:01:19.045Z,7.7
2022-12-24T04:02:27.456Z,7.7
2022-12-24T04:03:35.879Z,10.3
2022-12-24T04:04:44.220Z,10.3
2022-12-24T04:05:52.574Z,10.3
2022-12-24T04:07:01.101Z,8.8
2022-12-24T04:08:09.472Z,8.8
2022-12-24T04:09:17.807Z,8.8
2022-12-24T04:10:26.349Z,9.2
2022-12-24T04:11:34.708Z,9.2
2022-12-24T04:12:43.055Z,9.2
2022-12-24T04:13:51.611Z,7.2
2022-12-24T04:14:59.955Z,7.2
2022-12-24T04:16:08.377Z,7.2
2022-12-24T04:17:16.966Z,6.9
2022-12-24T04:18:25.237Z,6.9
2022-12-24T04:19:33.580Z,6.9
2022-12-24T04:20:42.147Z,7.7
2022-12-24T04:21:50.490Z,7.7
2022-12-24T04:22:58.808Z,7.7
2022-12-24T04:24:07.368Z,7.4
2022-12-24T04:25:15.720Z,7.4
2022-12-24T04:26:24.073Z,7.4
2022-12-24T04:27:32.639Z,8.3
2022-12-24T04:28:40.980Z,8.3
2022-12-24T04:29:49.315Z,8.3
2022-12-24T04:30:57.872Z,6.8
2022-12-24T04:32:06.309Z,6.8
2022-12-24T04:33:14.579Z,6.8
2022-12-24T04:34:23.125Z,8.6
2022-12-24T04:35:31.466Z,8.6
2022-12-24T04:36:39.823Z,8.6
2022-12-24T04:37:48.403Z,6.4
2022-12-24T04:38:56.726Z,6.4
2022-12-24T04:40:05.099Z,6.4
2022-12-24T04:41:19.009Z,7.9
2022-12-24T04:42:21.994Z,7.9
2022-12-24T04:43:30.363Z,7.9
2022-12-24T04:44:38.895Z,8.8
2022-12-24T04:45:47.233Z,8.8
2022-12-24T04:46:55.573Z,8.8
2022-12-24T04:48:04.128Z,8.5
2022-12-24T04:49:12.468Z,8.5
2022-12-24T04:50:20.815Z,8.5
2022-12-24T04:51:29.380Z,8.6
2022-12-24T04:52:37.744Z,8.6
2022-12-24T04:53:46.096Z,8.6
2022-12-24T04:54:54.634Z,11.2
2022-12-24T04:56:02.976Z,11.2
2022-12-24T04:57:11.323Z,11.2
2022-12-24T04:58:19.894Z,9.3
2022-12-24T04:59:28.232Z,9.3
2022-12-24T05:00:36.598Z,9.3
2022-12-24T05:01:45.298Z,10.1
2022-12-24T05:02:53.638Z,10.1
2022-12-24T05:04:01.827Z,10.1
2022-12-24T05:05:10.384Z,9
2022-12-24T05:06:18.749Z,9
2022-12-24T05:07:27.097Z,9
2022-12-24T05:08:35.655Z,6.8
2022-12-24T05:09:44.024Z,6.8
2022-12-24T05:10:52.357Z,6.8
2022-12-24T05:12:00.907Z,10.9
2022-12-24T05:13:09.271Z,10.9
2022-12-24T05:14:17.613Z,10.9
2022-12-24T05:15:26.166Z,9
2022-12-24T05:16:34.522Z,9
2022-12-24T05:17:42.846Z,9
2022-12-24T05:18:51.406Z,7.9
2022-12-24T05:19:59.748Z,7.9
2022-12-24T05:21:08.091Z,7.9
2022-12-24T05:22:16.637Z,9.8
2022-12-24T05:23:24.992Z,9.8
2022-12-24T05:24:33.352Z,9.8
2022-12-24T05:25:41.937Z,9.9
2022-12-24T05:26:50.260Z,9.9
2022-12-24T05:27:58.596Z,9.9
2022-12-24T05:29:07.176Z,9.9
2022-12-24T05:30:15.505Z,9.9
2022-12-24T05:31:23.888Z,9.9
2022-12-24T05:32:32.394Z,8.4
2022-12-24T05:33:40.742Z,8.4
2022-12-24T05:34:49.092Z,8.4
2022-12-24T05:35:57.645Z,13.1
2022-12-24T05:37:05.985Z,13.1
2022-12-24T05:38:14.339Z,13.1
2022-12-24T05:39:22.899Z,10.6
2022-12-24T05:40:31.239Z,10.6
2022-12-24T05:41:39.606Z,10.6
2022-12-24T05:42:48.146Z,10
2022-12-24T05:43:56.487Z,10
2022-12-24T05:45:04.836Z,10
2022-12-24T05:46:13.440Z,13
2022-12-24T05:47:21.764Z,13
2022-12-24T05:48:30.096Z,13
2022-12-24T05:49:38.637Z,9.6
2022-12-24T05:50:46.987Z,9.6
2022-12-24T05:51:55.365Z,9.6
2022-12-24T05:53:03.876Z,12.1
2022-12-24T05:54:12.218Z,12.1
2022-12-24T05:55:20.539Z,12.1
2022-12-24T05:56:29.092Z,9.5
2022-12-24T05:57:37.482Z,9.5
2022-12-24T05:58:45.793Z,9.5
2022-12-24T05:59:54.359Z,7.8
2022-12-24T06:01:02.719Z,7.8
2022-12-24T06:02:11.084Z,7.8
2022-12-24T06:03:19.595Z,12.6
2022-12-24T06:04:29.089Z,12.6
2022-12-24T06:05:36.293Z,12.6
2022-12-24T06:06:44.847Z,9
2022-12-24T06:07:53.201Z,9
2022-12-24T06:09:01.527Z,9
2022-12-24T06:10:10.118Z,10.6
2022-12-24T06:11:18.421Z,10.6
2022-12-24T06:12:26.773Z,10.6
2022-12-24T06:13:35.372Z,10.4
2022-12-24T06:14:43.674Z,10.4
2022-12-24T06:15:52.064Z,10.4
2022-12-24T06:17:00.573Z,10.3
2022-12-24T06:18:08.929Z,10.3
2022-12-24T06:19:17.283Z,10.3
2022-12-24T06:20:25.862Z,6.6
2022-12-24T06:21:34.290Z,6.6
2022-12-24T06:22:42.657Z,6.6
2022-12-24T06:23:51.259Z,9.8
2022-12-24T06:24:59.602Z,9.8
2022-12-24T06:26:07.976Z,9.8
2022-12-24T06:27:16.479Z,8.5
2022-12-24T06:28:24.846Z,8.5
2022-12-24T06:29:33.207Z,8.5
2022-12-24T06:30:41.739Z,9.8
2022-12-24T06:31:50.097Z,9.8
2022-12-24T06:32:58.426Z,9.8
2022-12-24T06:34:06.964Z,6.3
2022-12-24T06:35:15.307Z,6.3
2022-12-24T06:36:23.651Z,6.3
2022-12-24T06:37:32.206Z,7.8
2022-12-24T06:38:40.556Z,7.8
2022-12-24T06:39:48.896Z,7.8
2022-12-24T06:40:57.447Z,7.8
2022-12-24T06:42:05.788Z,7.8
2022-12-24T06:43:14.153Z,7.8
2022-12-24T06:44:22.725Z,8.2
2022-12-24T06:45:31.096Z,8.2
2022-12-24T06:46:39.475Z,8.2
2022-12-24T06:47:47.987Z,9.1
2022-12-24T06:48:56.325Z,9.1
2022-12-24T06:50:04.671Z,9.1
2022-12-24T06:51:13.228Z,6.9
2022-12-24T06:52:21.573Z,6.9
2022-12-24T06:53:29.947Z,6.9
2022-12-24T06:54:38.544Z,8.3
2022-12-24T06:55:47.037Z,8.3
2022-12-24T06:56:57.809Z,8.3
2022-12-24T06:58:03.962Z,10.9
2022-12-24T06:59:12.349Z,10.9
2022-12-24T07:00:20.644Z,10.9
2022-12-24T07:01:29.320Z,11.2
2022-12-24T07:02:37.596Z,11.2
2022-12-24T07:03:46.013Z,11.2
2022-12-24T07:04:54.455Z,10.2
2022-12-24T07:06:02.811Z,10.2
2022-12-24T07:07:11.207Z,10.2
2022-12-24T07:08:19.754Z,8.3
2022-12-24T07:09:28.098Z,8.3
2022-12-24T07:10:36.496Z,8.3
2022-12-24T07:11:45.012Z,11.3
2022-12-24T07:12:53.384Z,11.3
2022-12-24T07:14:01.742Z,11.3
2022-12-24T07:15:10.287Z,11.9
2022-12-24T07:16:18.751Z,11.9
2022-12-24T07:17:27.093Z,11.9
2022-12-24T07:18:35.561Z,10.1
2022-12-24T07:19:43.871Z,10.1
2022-12-24T07:20:52.225Z,10.1
2022-12-24T07:22:00.776Z,12.2
2022-12-24T07:23:09.126Z,12.2
2022-12-24T07:24:17.475Z,12.2
2022-12-24T07:25:26.039Z,10.8
2022-12-24T07:26:34.383Z,10.8
2022-12-24T07:27:42.737Z,10.8
2022-12-24T07:28:51.297Z,13.4
2022-12-24T07:29:59.637Z,13.4
2022-12-24T07:31:08.066Z,13.4
2022-12-24T07:32:16.576Z,9.4
2022-12-24T07:33:24.972Z,9.4
2022-12-24T07:34:33.280Z,9.4
2022-12-24T07:35:41.828Z,9.1
2022-12-24T07:36:50.217Z,9.1
2022-12-24T07:37:58.534Z,9.1
2022-12-24T07:39:07.089Z,14.9
2022-12-24T07:40:15.418Z,14.9
2022-12-24T07:41:23.784Z,14.9
2022-12-24T07:42:32.336Z,11.7
2022-12-24T07:43:40.668Z,11.7
2022-12-24T07:44:49.016Z,11.7
2022-12-24T07:45:57.599Z,30.6
2022-12-24T07:47:05.977Z,30.6
2022-12-24T07:48:14.262Z,30.6
2022-12-24T07:49:22.840Z,11.6
2022-12-24T07:50:31.178Z,11.6
2022-12-24T07:51:39.531Z,11.6
2022-12-24T07:52:48.109Z,18.1
2022-12-24T07:53:56.428Z,18.1
2022-12-24T07:55:04.766Z,18.1
2022-12-24T07:56:13.327Z,23.1
2022-12-24T07:57:21.669Z,23.1
2022-12-24T07:58:30.032Z,23.1
2022-12-24T07:59:38.588Z,12.1
2022-12-24T08:00:46.943Z,12.1
2022-12-24T08:01:55.474Z,12.1
2022-12-24T08:03:04.018Z,15.6
2022-12-24T08:04:12.528Z,15.6
2022-12-24T08:05:20.829Z,15.6
2022-12-24T08:06:29.332Z,11.7
2022-12-24T08:07:37.677Z,11.7
2022-12-24T08:08:46.007Z,11.7
2022-12-24T08:09:54.563Z,13.9
2022-12-24T08:11:02.911Z,13.9
2022-12-24T08:12:11.242Z,13.9
2022-12-24T08:13:19.800Z,20.799999
2022-12-24T08:14:28.152Z,20.799999
2022-12-24T08:15:36.518Z,20.799999
2022-12-24T08:16:45.143Z,11.9
2022-12-24T08:17:53.403Z,11.9
2022-12-24T08:19:01.751Z,11.9
2022-12-24T08:20:10.349Z,16.9
2022-12-24T08:21:18.748Z,16.9
2022-12-24T08:22:27.041Z,16.9
2022-12-24T08:23:35.572Z,13.5
2022-12-24T08:24:43.921Z,13.5
2022-12-24T08:25:52.254Z,13.5
2022-12-24T08:27:00.834Z,12.9
2022-12-24T08:28:09.179Z,12.9
2022-12-24T08:29:17.519Z,12.9
2022-12-24T08:30:26.090Z,12.3
2022-12-24T08:31:34.441Z,12.3
2022-12-24T08:32:42.767Z,12.3
2022-12-24T08:33:51.331Z,12.4
2022-12-24T08:34:59.668Z,12.4
2022-12-24T08:36:08.025Z,12.4
2022-12-24T08:37:16.592Z,10.8
2022-12-24T08:38:24.935Z,10.8
2022-12-24T08:39:33.274Z,10.8
2022-12-24T08:40:41.798Z,9.7
2022-12-24T08:41:50.147Z,9.7
2022-12-24T08:42:58.570Z,9.7
2022-12-24T08:44:07.029Z,9.8
2022-12-24T08:45:15.365Z,9.8
2022-12-24T08:46:23.772Z,9.8
2022-12-24T08:47:32.295Z,7.8
2022-12-24T08:48:40.671Z,7.8
2022-12-24T08:49:48.989Z,7.8
2022-12-24T08:50:57.534Z,9.8
2022-12-24T08:52:05.919Z,9.8
2022-12-24T08:53:14.286Z,9.8
2022-12-24T08:54:22.784Z,7.4
2022-12-24T08:55:31.125Z,7.4
2022-12-24T08:56:39.458Z,7.4
2022-12-24T08:57:48.038Z,8.9
2022-12-24T08:58:56.390Z,8.9
2022-12-24T09:00:04.736Z,8.9
2022-12-24T09:01:13.421Z,7.6
2022-12-24T09:02:21.887Z,7.6
2022-12-24T09:03:30.021Z,7.6
2022-12-24T09:04:38.535Z,6.9
2022-12-24T09:05:46.875Z,6.9
2022-12-24T09:06:55.226Z,6.9
2022-12-24T09:08:03.779Z,7.7
2022-12-24T09:09:12.140Z,7.7
2022-12-24T09:10:20.449Z,7.7
2022-12-24T09:11:28.995Z,6.1
2022-12-24T09:12:37.351Z,6.1
2022-12-24T09:13:45.690Z,6.1
2022-12-24T09:14:56.937Z,6.1
2022-12-24T09:16:02.587Z,6.1
2022-12-24T09:17:10.899Z,6.1
2022-12-24T09:18:19.460Z,9.4
2022-12-24T09:19:27.807Z,9.4
2022-12-24T09:20:36.154Z,9.4
2022-12-24T09:21:44.701Z,8.1
2022-12-24T09:22:53.069Z,8.1
2022-12-24T09:24:01.443Z,8.1
2022-12-24T09:25:09.983Z,23.1
2022-12-24T09:26:18.316Z,23.1
2022-12-24T09:27:26.659Z,23.1
2022-12-24T09:28:35.228Z,12.5
2022-12-24T09:29:43.606Z,12.5
2022-12-24T09:30:51.944Z,12.5
2022-12-24T09:32:00.600Z,6.9
2022-12-24T09:33:08.853Z,6.9
2022-12-24T09:34:17.764Z,6.9
2022-12-24T09:35:26.067Z,4.7
2022-12-24T09:36:34.486Z,4.7
2022-12-24T09:37:42.841Z,4.7
2022-12-24T09:38:51.389Z,5.4
2022-12-24T09:39:59.729Z,5.4
2022-12-24T09:41:09.049Z,5.4
2022-12-24T09:42:16.618Z,5.3
2022-12-24T09:43:25.016Z,5.3
2022-12-24T09:44:33.382Z,5.3
2022-12-24T09:45:41.967Z,6.3
2022-12-24T09:46:50.262Z,6.3
2022-12-24T09:47:58.637Z,6.3
2022-12-24T09:49:07.184Z,5.6
2022-12-24T09:50:15.555Z,5.6
2022-12-24T09:51:23.886Z,5.6
2022-12-24T09:52:32.438Z,5.7
2022-12-24T09:53:40.798Z,5.7
2022-12-24T09:54:49.731Z,5.7
2022-12-24T09:55:57.724Z,5.7
2022-12-24T09:57:06.117Z,5.7
2022-12-24T09:58:21.310Z,5.7
2022-12-24T09:59:29.845Z,4
2022-12-24T10:00:38.203Z,4
2022-12-24T10:01:46.688Z,4
2022-12-24T10:02:55.215Z,4.8
2022-12-24T10:04:03.515Z,4.8
2022-12-24T10:05:11.887Z,4.8
2022-12-24T10:06:25.076Z,5.9
2022-12-24T10:07:28.782Z,5.9
2022-12-24T10:08:37.156Z,5.9
2022-12-24T10:09:45.735Z,6.8
2022-12-24T10:10:54.097Z,6.8
2022-12-24T10:12:02.449Z,6.8
2022-12-24T10:13:11.046Z,4.9
2022-12-24T10:14:19.399Z,4.9
2022-12-24T10:15:27.735Z,4.9
2022-12-24T10:16:36.370Z,5.8
2022-12-24T10:17:44.712Z,5.8
2022-12-24T10:18:53.060Z,5.8
2022-12-24T10:20:01.614Z,8.4
2022-12-24T10:21:09.968Z,8.4
2022-12-24T10:22:18.298Z,8.4
2022-12-24T10:23:26.890Z,4.5
2022-12-24T10:24:35.218Z,4.5
2022-12-24T10:25:43.564Z,4.5
2022-12-24T10:26:52.107Z,5.6
2022-12-24T10:28:00.463Z,5.6
2022-12-24T10:29:08.829Z,5.6
2022-12-24T10:30:17.819Z,5.3
2022-12-24T10:31:25.719Z,5.3
2022-12-24T10:32:34.026Z,5.3
2022-12-24T10:33:42.587Z,7.3
2022-12-24T10:34:51.084Z,7.3
2022-12-24T10:35:59.421Z,7.3
2022-12-24T10:37:08.128Z,9.7
2022-12-24T10:38:16.492Z,9.7
2022-12-24T10:39:24.851Z,9.7
2022-12-24T10:40:33.394Z,6.2
2022-12-24T10:41:41.731Z,6.2
2022-12-24T10:42:51.454Z,6.2
2022-12-24T10:43:58.650Z,7.6
2022-12-24T10:45:07.028Z,7.6
2022-12-24T10:46:15.384Z,7.6
2022-12-24T10:47:23.875Z,9.6
2022-12-24T10:48:32.243Z,9.6
2022-12-24T10:49:40.568Z,9.6
2022-12-24T10:50:49.147Z,11
2022-12-24T10:51:57.453Z,11
2022-12-24T10:53:05.825Z,11
2022-12-24T10:54:14.395Z,9.3
2022-12-24T10:55:22.725Z,9.3
2022-12-24T10:56:31.057Z,9.3
2022-12-24T10:57:39.624Z,9.1
2022-12-24T10:58:47.960Z,9.1
2022-12-24T10:59:56.329Z,9.1
2022-12-24T11:01:04.940Z,8.6
2022-12-24T11:02:13.332Z,8.6
2022-12-24T11:03:21.635Z,8.6
2022-12-24T11:04:30.118Z,8.3
2022-12-24T11:05:38.466Z,8.3
2022-12-24T11:06:49.247Z,8.3
2022-12-24T11:07:55.355Z,7.8
2022-12-24T11:09:03.693Z,7.8
2022-12-24T11:10:12.041Z,7.8
2022-12-24T11:11:20.755Z,7.3
2022-12-24T11:12:28.934Z,7.3
2022-12-24T11:13:38.947Z,7.3
2022-12-24T11:14:45.841Z,7.8
2022-12-24T11:15:54.194Z,7.8
2022-12-24T11:17:02.549Z,7.8
2022-12-24T11:18:11.074Z,9
2022-12-24T11:19:19.419Z,9
2022-12-24T11:20:27.761Z,9
2022-12-24T11:21:36.308Z,8.4
2022-12-24T11:22:44.671Z,8.4
2022-12-24T11:23:53.022Z,8.4
2022-12-24T11:25:01.593Z,10.1
2022-12-24T11:26:09.932Z,10.1
2022-12-24T11:27:18.251Z,10.1
2022-12-24T11:28:26.815Z,7.7
2022-12-24T11:29:35.166Z,7.7
2022-12-24T11:30:43.539Z,7.7
2022-12-24T11:31:52.049Z,7
2022-12-24T11:33:00.468Z,7
2022-12-24T11:34:08.765Z,7
2022-12-24T11:35:17.312Z,11.6
2022-12-24T11:36:25.670Z,11.6
2022-12-24T11:37:34.045Z,11.6
2022-12-24T11:38:42.599Z,10.9
2022-12-24T11:39:50.956Z,10.9
2022-12-24T11:40:59.296Z,10.9
2022-12-24T11:42:07.866Z,11
2022-12-24T11:43:16.284Z,11
2022-12-24T11:44:24.608Z,11
2022-12-24T11:45:33.170Z,8.8
2022-12-24T11:46:41.616Z,8.8
2022-12-24T11:47:49.872Z,8.8
2022-12-24T11:49:02.757Z,10.1
2022-12-24T11:50:18.011Z,10.1
2022-12-24T11:51:15.119Z,10.1
2022-12-24T11:52:23.683Z,8.1
2022-12-24T11:53:32.022Z,8.1
2022-12-24T11:54:40.421Z,8.1
2022-12-24T11:55:48.933Z,5.7
2022-12-24T11:56:57.305Z,5.7
2022-12-24T11:58:05.676Z,5.7
2022-12-24T11:59:14.225Z,8.1
2022-12-24T12:00:22.559Z,8.1
2022-12-24T12:01:31.004Z,8.1
2022-12-24T12:02:39.525Z,8.9
2022-12-24T12:03:47.894Z,8.9
2022-12-24T12:04:56.313Z,8.9
2022-12-24T12:06:04.872Z,8.4
2022-12-24T12:07:15.146Z,8.4
2022-12-24T12:08:21.706Z,8.4
2022-12-24T12:09:30.300Z,6.2
2022-12-24T12:10:38.656Z,6.2
2022-12-24T12:11:47.157Z,6.2
2022-12-24T12:12:55.745Z,5.3
2022-12-24T12:14:04.120Z,5.3
2022-12-24T12:15:12.524Z,5.3
2022-12-24T12:16:21.227Z,6.6
2022-12-24T12:17:30.320Z,6.6
2022-12-24T12:18:38.660Z,6.6
2022-12-24T12:19:47.214Z,5.4
2022-12-24T12:20:55.575Z,5.4
2022-12-24T12:22:03.914Z,5.4
2022-12-24T12:23:12.480Z,7
2022-12-24T12:24:20.861Z,7
2022-12-24T12:25:29.270Z,7
2022-12-24T12:26:37.815Z,4
2022-12-24T12:27:47.149Z,4
2022-12-24T12:28:55.520Z,4
2022-12-24T12:30:04.115Z,4.1
2022-12-24T12:31:16.229Z,4.1
2022-12-24T12:32:20.868Z,4.1
2022-12-24T12:33:29.506Z,3.8
2022-12-24T12:34:37.863Z,3.8
2022-12-24T12:35:46.234Z,3.8
2022-12-24T12:36:54.827Z,3.6
2022-12-24T12:38:03.193Z,3.6
2022-12-24T12:39:11.556Z,3.6
2022-12-24T12:40:20.181Z,4.4
2022-12-24T12:41:28.542Z,4.4
2022-12-24T12:42:36.947Z,4.4
2022-12-24T12:43:45.510Z,3.7
2022-12-24T12:44:53.912Z,3.7
2022-12-24T12:46:02.311Z,3.7
2022-12-24T12:47:10.910Z,3.9
2022-12-24T12:48:19.282Z,3.9
2022-12-24T12:49:27.679Z,3.9
2022-12-24T12:50:36.297Z,3.6
2022-12-24T12:51:44.647Z,3.6
2022-12-24T12:52:53.069Z,3.6
2022-12-24T12:54:01.628Z,5.8
2022-12-24T12:55:10.090Z,5.8
2022-12-24T12:56:18.418Z,5.8
2022-12-24T12:57:27.002Z,5.6
2022-12-24T12:58:35.393Z,5.6
2022-12-24T12:59:43.744Z,5.6
2022-12-24T13:00:52.384Z,5.8
2022-12-24T13:02:00.908Z,5.8
2022-12-24T13:03:09.177Z,5.8
2022-12-24T13:04:17.636Z,8.5
2022-12-24T13:05:25.992Z,8.5
2022-12-24T13:06:34.361Z,8.5
2022-12-24T13:07:42.979Z,7.1
2022-12-24T13:08:51.384Z,7.1
2022-12-24T13:09:59.724Z,7.1
2022-12-24T13:11:08.330Z,8.5
2022-12-24T13:12:16.710Z,8.5
2022-12-24T13:13:25.072Z,8.5
2022-12-24T13:14:33.716Z,5.3
2022-12-24T13:15:42.134Z,5.3
2022-12-24T13:16:50.600Z,5.3
2022-12-24T13:17:59.124Z,7.2
2022-12-24T13:19:07.501Z,7.2
2022-12-24T13:20:15.939Z,7.2
2022-12-24T13:21:24.505Z,10.2
2022-12-24T13:22:32.871Z,10.2
2022-12-24T13:23:41.256Z,10.2
2022-12-24T13:24:51.973Z,7.8
2022-12-24T13:25:58.191Z,7.8
2022-12-24T13:27:06.609Z,7.8
2022-12-24T13:28:15.121Z,11.8
2022-12-24T13:29:23.478Z,11.8
2022-12-24T13:30:31.856Z,11.8
2022-12-24T13:31:40.470Z,11.4
2022-12-24T13:32:48.785Z,11.4
2022-12-24T13:33:57.164Z,11.4
2022-12-24T13:35:05.737Z,12.5
2022-12-24T13:36:14.085Z,12.5
2022-12-24T13:37:22.475Z,12.5
2022-12-24T13:38:31.072Z,10.9
2022-12-24T13:39:39.432Z,10.9
2022-12-24T13:40:47.888Z,10.9
2022-12-24T13:41:56.391Z,9.9
2022-12-24T13:43:04.820Z,9.9
2022-12-24T13:44:13.383Z,9.9
2022-12-24T13:45:21.750Z,8.2
2022-12-24T13:46:30.220Z,8.2
2022-12-24T13:47:38.557Z,8.2
2022-12-24T13:48:47.098Z,12
2022-12-24T13:49:55.474Z,12
2022-12-24T13:51:03.857Z,12
2022-12-24T13:52:12.432Z,12.7
2022-12-24T13:53:20.807Z,12.7
2022-12-24T13:54:29.155Z,12.7
2022-12-24T13:55:37.737Z,12
2022-12-24T13:56:46.119Z,12
2022-12-24T13:57:54.496Z,12
2022-12-24T13:59:03.077Z,9.3
2022-12-24T14:00:11.457Z,9.3
2022-12-24T14:01:19.935Z,9.3
2022-12-24T14:02:28.494Z,9.8
2022-12-24T14:03:36.839Z,9.8
2022-12-24T14:04:45.206Z,9.8
2022-12-24T14:05:53.812Z,11.7
2022-12-24T14:07:02.516Z,11.7
2022-12-24T14:08:10.964Z,11.7
2022-12-24T14:09:19.567Z,11.3
2022-12-24T14:10:27.901Z,11.3
2022-12-24T14:11:38.017Z,11.3
2022-12-24T14:12:44.929Z,14
2022-12-24T14:13:53.337Z,14
2022-12-24T14:15:01.721Z,14
2022-12-24T14:16:10.278Z,11.8
2022-12-24T14:17:18.556Z,11.8
2022-12-24T14:18:26.934Z,11.8
2022-12-24T14:19:37.661Z,14.9
2022-12-24T14:20:43.829Z,14.9
2022-12-24T14:21:52.179Z,14.9
2022-12-24T14:23:00.758Z,12.3
2022-12-24T14:24:09.107Z,12.3
2022-12-24T14:25:17.470Z,12.3
2022-12-24T14:26:26.079Z,9
2022-12-24T14:27:34.405Z,9
2022-12-24T14:28:42.800Z,9
2022-12-24T14:29:51.313Z,10.4
2022-12-24T14:30:59.643Z,10.4
2022-12-24T15:04:46.602Z,0
2022-12-24T15:05:54.953Z,0
2022-12-24T15:07:03.280Z,0
2022-12-24T15:08:11.853Z,13.5
2022-12-24T15:09:20.215Z,13.5
2022-12-24T15:10:28.556Z,13.5
2022-12-24T15:11:37.120Z,9.4
2022-12-24T15:12:45.465Z,9.4
2022-12-24T15:13:53.825Z,9.4
2022-12-24T15:15:02.361Z,13
2022-12-24T15:16:10.876Z,13
2022-12-24T15:17:19.138Z,13
2022-12-24T15:18:27.599Z,11
2022-12-24T15:19:35.964Z,11
2022-12-24T15:20:44.331Z,11
2022-12-24T15:21:52.866Z,13
2022-12-24T15:23:01.248Z,13
2022-12-24T15:24:09.606Z,13
2022-12-24T15:25:18.176Z,9.6
2022-12-24T15:26:26.536Z,9.6
2022-12-24T15:27:34.872Z,9.6
2022-12-24T15:28:43.449Z,9.7
2022-12-24T15:29:51.810Z,9.7
2022-12-24T15:31:00.263Z,9.7
2022-12-24T15:32:08.767Z,11.3
2022-12-24T15:33:17.134Z,11.3
2022-12-24T15:34:25.609Z,11.3
2022-12-24T15:35:34.153Z,14.5
2022-12-24T15:36:42.519Z,14.5
2022-12-24T15:37:50.866Z,14.5
2022-12-24T15:38:59.472Z,13.8
2022-12-24T15:40:07.835Z,13.8
2022-12-24T15:41:16.248Z,13.8
2022-12-24T15:42:24.830Z,10.4
2022-12-24T15:43:33.208Z,10.4
2022-12-24T15:44:41.703Z,10.4
2022-12-24T15:45:50.284Z,9
2022-12-24T15:46:58.633Z,9
2022-12-24T15:48:07.059Z,9
2022-12-24T15:49:15.773Z,12.3
2022-12-24T15:50:24.157Z,12.3
2022-12-24T15:51:32.570Z,12.3
2022-12-24T15:52:41.112Z,9.1
2022-12-24T15:53:49.477Z,9.1
2022-12-24T15:54:58.583Z,9.1
2022-12-24T15:56:06.443Z,11.6
2022-12-24T15:57:14.882Z,11.6
2022-12-24T15:58:23.330Z,11.6
2022-12-24T15:59:31.898Z,9.2
2022-12-24T16:00:40.247Z,9.2
2022-12-24T16:01:48.717Z,9.2
2022-12-24T16:02:57.318Z,14.5
2022-12-24T16:04:05.551Z,14.5
2022-12-24T16:05:13.925Z,14.5
2022-12-24T16:06:22.492Z,22.6
2022-12-24T16:07:30.820Z,22.6
2022-12-24T16:08:39.196Z,22.6
2022-12-24T16:09:47.745Z,24.299999
2022-12-24T16:10:56.082Z,24.299999